Terminal Aerodrome Forecast
Issued by NWS

Home | Current Version | Previous Version | Text Only | Print | Product List | Glossary On
Versions: 1 2 3 4 5 6 7 8 9 10 11 12 13 14
910
FTUS45 KABQ 251739
TAFGUP
TAF
KGUP 251739Z 2518/2618 24011G17KT P6SM SKC
     FM252000 25018G27KT P6SM SCT200
     FM260200 23010KT P6SM FEW100 SCT150
     FM261700 24011G18KT P6SM SCT080 BKN120=

USA.gov is the U.S. government's official web portal to all federal, state and local government web resources and services.